Time;durP1;ratioP1;P1;durP2;ratioP2;P2;SDS_P1;SDS_P2;PMS_P1;PMS_P2;Temp;Humidity;BMP_temperature;BMP_pressure;BME280_temperature;BME280_humidity;BME280_pressure;Samples;Min_cycle;Max_cycle;Signal;HPM_P1;HPM_P2
2021/07/07 00:00:23;;;;;;;8.48;2.85;;;16.40;76.40;;;;;;5012122;28;20042;-76
2021/07/07 00:02:50;;;;;;;8.23;2.80;;;16.40;76.40;;;;;;5009470;28;20108;-76
2021/07/07 00:05:18;;;;;;;8.15;3.22;;;16.40;76.60;;;;;;5009777;28;20485;-76
2021/07/07 00:07:44;;;;;;;9.77;3.00;;;16.40;76.80;;;;;;5018725;28;20473;-76
2021/07/07 00:10:13;;;;;;;9.38;2.80;;;16.40;77.00;;;;;;5010888;28;20423;-76
2021/07/07 00:12:39;;;;;;;9.23;3.22;;;16.40;77.10;;;;;;5013706;28;20384;-76
2021/07/07 00:15:09;;;;;;;7.25;3.05;;;16.40;77.30;;;;;;5009096;28;20034;-77
2021/07/07 00:17:35;;;;;;;10.35;3.10;;;16.40;77.60;;;;;;5023594;28;20029;-76
2021/07/07 00:20:01;;;;;;;9.02;3.10;;;16.30;77.60;;;;;;5012565;28;20045;-77
2021/07/07 00:22:26;;;;;;;6.97;2.60;;;16.30;78.00;;;;;;5018904;28;20045;-78
2021/07/07 00:24:52;;;;;;;9.65;2.72;;;16.30;78.10;;;;;;5018436;28;20042;-76
2021/07/07 00:27:18;;;;;;;8.75;2.53;;;16.40;78.00;;;;;;5014288;28;20034;-76
2021/07/07 00:29:44;;;;;;;7.90;2.95;;;16.30;78.10;;;;;;5027053;28;20022;-76
2021/07/07 00:32:10;;;;;;;10.95;3.15;;;16.40;78.30;;;;;;5020588;28;20046;-76
2021/07/07 00:34:35;;;;;;;8.05;2.92;;;16.40;78.20;;;;;;5010292;28;20033;-76
2021/07/07 00:37:02;;;;;;;9.77;2.47;;;16.30;78.30;;;;;;5008558;28;20566;-76
2021/07/07 00:39:28;;;;;;;9.32;3.10;;;16.30;78.60;;;;;;5020072;28;20032;-75
2021/07/07 00:41:54;;;;;;;6.65;2.50;;;16.40;78.60;;;;;;5013049;28;20030;-75
2021/07/07 00:44:19;;;;;;;8.48;2.80;;;16.40;78.40;;;;;;5022331;28;20041;-76
2021/07/07 00:46:46;;;;;;;8.93;2.90;;;16.40;78.40;;;;;;5013112;28;20037;-75
2021/07/07 00:49:13;;;;;;;6.07;2.10;;;16.40;78.40;;;;;;5015545;28;20037;-76
2021/07/07 00:51:40;;;;;;;7.35;3.05;;;16.40;78.80;;;;;;5010700;28;20448;-75
2021/07/07 00:54:06;;;;;;;6.38;2.80;;;16.50;79.30;;;;;;5016235;28;20125;-75
2021/07/07 00:56:35;;;;;;;8.32;2.72;;;16.50;79.40;;;;;;5016988;28;20036;-77
2021/07/07 00:59:02;;;;;;;7.40;2.85;;;16.50;79.50;;;;;;5009399;28;20096;-76
2021/07/07 01:01:29;;;;;;;9.88;3.08;;;16.50;79.80;;;;;;5008981;28;20042;-76
2021/07/07 01:03:55;;;;;;;8.30;2.60;;;16.50;79.70;;;;;;5009319;28;20038;-75
2021/07/07 01:06:21;;;;;;;7.78;2.80;;;16.50;79.60;;;;;;5009647;28;20157;-75
2021/07/07 01:08:47;;;;;;;7.90;3.13;;;16.50;79.60;;;;;;5015942;28;20477;-77
2021/07/07 01:11:12;;;;;;;9.38;3.22;;;16.50;79.70;;;;;;5009791;28;20504;-75
2021/07/07 01:13:39;;;;;;;8.68;3.20;;;16.50;79.60;;;;;;5008291;28;20034;-75
2021/07/07 01:16:05;;;;;;;8.98;3.42;;;16.50;79.60;;;;;;5013844;28;20033;-76
2021/07/07 01:18:31;;;;;;;9.60;3.08;;;16.40;79.50;;;;;;5014584;28;20030;-75
2021/07/07 01:20:57;;;;;;;8.95;3.28;;;16.40;79.50;;;;;;5008115;28;20075;-76
2021/07/07 01:23:23;;;;;;;9.00;3.42;;;16.40;79.50;;;;;;5011506;28;20388;-75
2021/07/07 01:25:48;;;;;;;9.68;3.40;;;16.40;79.60;;;;;;5008446;28;20030;-75
2021/07/07 01:28:16;;;;;;;9.57;3.45;;;16.40;79.60;;;;;;5009820;28;20678;-75
2021/07/07 01:30:42;;;;;;;6.97;3.05;;;16.30;79.50;;;;;;5027636;28;20053;-75
2021/07/07 01:33:08;;;;;;;10.13;3.67;;;16.40;79.70;;;;;;5010060;28;20464;-76
2021/07/07 01:35:34;;;;;;;8.23;2.90;;;16.30;79.60;;;;;;5009976;28;20037;-77
2021/07/07 01:37:59;;;;;;;10.75;3.05;;;16.30;79.80;;;;;;5023627;28;20044;-74
2021/07/07 01:40:26;;;;;;;10.98;3.35;;;16.30;79.80;;;;;;5015168;28;20469;-74
2021/07/07 01:42:53;;;;;;;10.75;3.58;;;16.30;79.90;;;;;;5015643;28;20033;-76
2021/07/07 01:45:23;;;;;;;8.13;2.92;;;16.30;79.90;;;;;;5021215;28;20033;-76
2021/07/07 01:47:51;;;;;;;8.25;3.63;;;16.30;79.70;;;;;;5024209;28;20480;-76
2021/07/07 01:50:16;;;;;;;9.38;3.22;;;16.30;79.70;;;;;;5014319;28;20535;-76
2021/07/07 01:52:43;;;;;;;9.05;3.22;;;16.40;79.60;;;;;;5032748;28;20065;-76
2021/07/07 01:55:11;;;;;;;9.55;3.25;;;16.40;79.40;;;;;;5016379;28;20523;-78
2021/07/07 01:57:43;;;;;;;7.70;3.00;;;16.40;79.50;;;;;;5012030;28;20189;-76
2021/07/07 02:00:18;;;;;;;5.90;2.67;;;16.40;79.50;;;;;;5012890;28;20038;-76
2021/07/07 02:02:45;;;;;;;6.25;2.70;;;16.40;79.30;;;;;;5019086;28;20030;-75
2021/07/07 02:05:12;;;;;;;9.93;3.13;;;16.40;79.20;;;;;;5012044;28;20045;-75
2021/07/07 02:07:38;;;;;;;8.68;3.03;;;16.50;79.20;;;;;;5011436;28;20065;-75
2021/07/07 02:10:07;;;;;;;8.02;3.00;;;16.40;79.10;;;;;;5010579;28;20045;-75
2021/07/07 02:12:33;;;;;;;10.80;3.25;;;16.50;79.00;;;;;;5028036;28;20111;-76
2021/07/07 02:14:59;;;;;;;9.23;3.30;;;16.50;78.60;;;;;;5015552;28;20042;-75
2021/07/07 02:17:25;;;;;;;10.75;4.20;;;16.50;78.70;;;;;;5014464;28;20045;-75
2021/07/07 02:19:50;;;;;;;9.15;3.50;;;16.50;78.50;;;;;;5031322;28;20052;-75
2021/07/07 02:22:16;;;;;;;8.57;2.92;;;16.60;78.60;;;;;;5042058;28;20048;-76
2021/07/07 02:24:41;;;;;;;9.48;3.95;;;16.60;78.70;;;;;;5030446;28;20038;-75
2021/07/07 02:27:08;;;;;;;7.63;3.05;;;16.50;78.70;;;;;;5032081;28;20045;-75
2021/07/07 02:29:34;;;;;;;6.57;2.92;;;16.60;78.60;;;;;;5033029;28;20037;-76
2021/07/07 02:32:00;;;;;;;9.18;3.28;;;16.50;78.70;;;;;;5026169;28;20049;-76
2021/07/07 02:34:26;;;;;;;10.55;3.13;;;16.60;78.80;;;;;;5023048;28;20037;-76
2021/07/07 02:36:51;;;;;;;8.93;3.70;;;16.50;79.00;;;;;;5027566;28;20033;-75
2021/07/07 02:39:17;;;;;;;9.10;3.03;;;16.50;79.00;;;;;;5025496;28;20042;-78
2021/07/07 02:41:43;;;;;;;9.23;3.05;;;16.60;79.00;;;;;;5024358;28;20049;-76
2021/07/07 02:44:09;;;;;;;5.90;2.53;;;16.60;79.00;;;;;;5022966;28;20122;-76
2021/07/07 02:46:34;;;;;;;8.05;3.30;;;16.60;79.10;;;;;;5036319;28;20029;-79
2021/07/07 02:49:00;;;;;;;8.45;3.47;;;16.60;79.10;;;;;;5026617;28;20137;-76
2021/07/07 02:51:25;;;;;;;8.02;3.22;;;16.60;79.00;;;;;;5023994;28;20068;-76
2021/07/07 02:53:51;;;;;;;8.20;3.30;;;16.60;79.10;;;;;;5033949;28;20041;-75
2021/07/07 02:56:17;;;;;;;11.23;3.28;;;16.60;79.20;;;;;;5031408;28;20044;-76
2021/07/07 02:58:42;;;;;;;8.02;2.90;;;16.60;78.90;;;;;;5023527;28;20120;-78
2021/07/07 03:01:08;;;;;;;7.28;2.70;;;16.60;78.80;;;;;;5035649;28;20103;-76
2021/07/07 03:03:34;;;;;;;7.78;2.85;;;16.60;78.90;;;;;;5024844;28;20033;-77
2021/07/07 03:06:02;;;;;;;7.68;2.90;;;16.70;78.90;;;;;;5022869;28;20121;-77
2021/07/07 03:08:30;;;;;;;8.48;2.58;;;16.70;78.60;;;;;;5022768;28;20038;-75
2021/07/07 03:10:56;;;;;;;10.30;3.17;;;16.60;78.70;;;;;;5024095;28;20034;-76
2021/07/07 03:13:23;;;;;;;6.85;2.72;;;16.60;78.80;;;;;;5024173;28;20072;-75
2021/07/07 03:15:50;;;;;;;8.65;2.80;;;16.60;78.90;;;;;;5025844;28;20028;-74
2021/07/07 03:18:16;;;;;;;7.45;3.25;;;16.60;79.00;;;;;;5035818;28;20097;-75
2021/07/07 03:20:44;;;;;;;8.40;2.92;;;16.60;79.00;;;;;;5035845;28;20377;-75
2021/07/07 03:23:11;;;;;;;12.27;3.50;;;16.60;79.20;;;;;;5036840;28;20063;-77
2021/07/07 03:25:37;;;;;;;8.45;3.15;;;16.50;79.40;;;;;;5034876;28;20482;-75
2021/07/07 03:28:03;;;;;;;7.25;3.20;;;16.50;79.60;;;;;;5025171;28;20026;-76
2021/07/07 03:30:29;;;;;;;8.13;3.17;;;16.50;79.80;;;;;;5033433;28;20029;-76
2021/07/07 03:32:57;;;;;;;10.07;3.47;;;16.60;79.90;;;;;;5028146;28;20030;-78
2021/07/07 03:35:23;;;;;;;9.20;3.33;;;16.60;79.90;;;;;;5030639;28;20030;-76
2021/07/07 03:37:49;;;;;;;11.75;3.70;;;16.50;80.00;;;;;;5031884;28;20037;-75
2021/07/07 03:40:15;;;;;;;7.32;3.20;;;16.50;79.90;;;;;;5025875;28;20037;-76
2021/07/07 03:42:41;;;;;;;8.88;3.03;;;16.60;80.00;;;;;;5026964;28;20037;-75
2021/07/07 03:45:09;;;;;;;11.88;3.60;;;16.60;80.00;;;;;;5029190;28;20038;-78
2021/07/07 03:47:35;;;;;;;9.88;3.25;;;16.50;80.00;;;;;;5029440;28;20037;-77
2021/07/07 03:50:02;;;;;;;8.32;3.25;;;16.50;80.30;;;;;;5036258;28;20042;-76
2021/07/07 03:52:28;;;;;;;11.25;3.50;;;16.50;80.40;;;;;;5027975;28;20110;-75
2021/07/07 03:54:54;;;;;;;10.15;4.05;;;16.50;80.50;;;;;;5040216;28;20042;-76
2021/07/07 03:57:19;;;;;;;8.48;3.80;;;16.50;80.50;;;;;;5032586;28;20053;-76
2021/07/07 03:59:46;;;;;;;16.73;3.88;;;16.50;80.60;;;;;;5028749;28;20095;-78
2021/07/07 04:02:12;;;;;;;12.00;4.13;;;16.40;81.00;;;;;;5030014;28;20570;-78
2021/07/07 04:04:38;;;;;;;9.32;3.10;;;16.40;81.00;;;;;;5026328;28;20034;-74
2021/07/07 04:07:04;;;;;;;11.63;3.70;;;16.40;80.90;;;;;;5025931;28;20032;-76
2021/07/07 04:09:30;;;;;;;11.45;3.40;;;16.40;80.90;;;;;;5038694;28;20034;-75
2021/07/07 04:11:56;;;;;;;8.93;3.40;;;16.50;80.90;;;;;;5033676;28;20053;-77
2021/07/07 04:14:26;;;;;;;7.60;2.97;;;16.40;80.80;;;;;;5026217;28;20029;-75
2021/07/07 04:16:56;;;;;;;10.15;3.25;;;16.40;80.80;;;;;;5043748;28;20053;-75
2021/07/07 04:19:22;;;;;;;9.68;3.70;;;16.50;80.80;;;;;;5040206;28;20063;-78
2021/07/07 04:21:47;;;;;;;8.55;3.20;;;16.50;80.90;;;;;;5035673;28;20046;-75
2021/07/07 04:24:14;;;;;;;7.28;3.20;;;16.50;80.90;;;;;;5048930;28;20069;-76
2021/07/07 04:26:39;;;;;;;6.63;3.00;;;16.50;80.60;;;;;;5034791;28;20029;-74
2021/07/07 04:29:05;;;;;;;14.88;3.83;;;16.60;80.50;;;;;;5025388;28;20161;-78
2021/07/07 04:31:35;;;;;;;11.25;3.88;;;16.60;80.30;;;;;;5036428;28;20053;-78
2021/07/07 04:34:02;;;;;;;9.48;3.40;;;16.60;80.10;;;;;;5026825;28;20037;-76
2021/07/07 04:36:28;;;;;;;9.10;3.30;;;16.70;80.10;;;;;;5027340;28;20036;-76
2021/07/07 04:38:54;;;;;;;10.27;3.30;;;16.70;79.70;;;;;;5025923;28;20038;-76
2021/07/07 04:41:19;;;;;;;8.77;3.28;;;16.80;79.60;;;;;;5035625;28;20068;-77
2021/07/07 04:43:45;;;;;;;7.47;3.28;;;16.80;79.30;;;;;;5045580;28;20040;-78
2021/07/07 04:46:11;;;;;;;9.32;3.30;;;16.90;78.90;;;;;;5040622;28;20042;-76
2021/07/07 04:48:36;;;;;;;15.35;3.90;;;17.00;79.20;;;;;;5026031;28;20046;-77
2021/07/07 04:51:02;;;;;;;11.63;3.35;;;17.10;78.80;;;;;;5031725;28;20101;-76
2021/07/07 04:53:28;;;;;;;11.75;3.45;;;17.10;78.70;;;;;;5037276;28;20034;-77
2021/07/07 04:55:53;;;;;;;9.57;3.30;;;17.10;78.40;;;;;;5037984;28;20034;-79
2021/07/07 04:58:19;;;;;;;9.57;3.25;;;17.20;78.30;;;;;;5037795;28;20037;-77
2021/07/07 05:00:45;;;;;;;8.82;3.80;;;17.20;78.30;;;;;;5038217;28;20034;-76
2021/07/07 05:03:11;;;;;;;10.57;3.72;;;17.20;78.30;;;;;;5039051;28;20108;-76
2021/07/07 05:05:36;;;;;;;7.82;2.88;;;17.10;78.70;;;;;;5027364;28;20034;-77
2021/07/07 05:08:04;;;;;;;8.70;3.15;;;17.10;78.70;;;;;;5038143;28;20029;-77
2021/07/07 05:10:31;;;;;;;11.23;3.40;;;17.10;78.60;;;;;;5029726;28;20033;-78
2021/07/07 05:12:58;;;;;;;10.15;3.50;;;17.10;78.70;;;;;;5039891;28;20030;-78
2021/07/07 05:15:23;;;;;;;9.40;3.33;;;17.10;78.80;;;;;;5034304;28;20048;-77
2021/07/07 05:17:49;;;;;;;9.57;3.30;;;17.10;78.80;;;;;;5039563;28;20044;-76
2021/07/07 05:20:17;;;;;;;7.88;3.53;;;17.10;78.60;;;;;;5031672;28;20056;-76
2021/07/07 05:22:44;;;;;;;11.13;3.88;;;17.10;78.40;;;;;;5028961;28;20038;-77
2021/07/07 05:25:14;;;;;;;8.30;3.50;;;17.30;78.20;;;;;;5038455;28;20041;-76
2021/07/07 05:27:40;;;;;;;14.63;3.55;;;17.50;77.70;;;;;;5028911;28;20089;-77
2021/07/07 05:30:07;;;;;;;11.30;3.38;;;17.80;76.50;;;;;;5036847;28;20037;-77
2021/07/07 05:32:33;;;;;;;11.07;3.50;;;17.90;75.80;;;;;;5037330;28;20088;-78
2021/07/07 05:34:59;;;;;;;10.75;3.47;;;18.10;75.20;;;;;;5030929;28;20034;-79
2021/07/07 05:37:25;;;;;;;10.30;3.97;;;18.30;74.60;;;;;;5028199;28;20072;-76
2021/07/07 05:39:53;;;;;;;12.77;3.85;;;18.30;74.20;;;;;;5030340;28;20045;-74
2021/07/07 05:42:20;;;;;;;8.60;3.53;;;18.20;74.70;;;;;;5030535;28;20072;-73
2021/07/07 05:44:50;;;;;;;10.48;3.90;;;17.90;75.40;;;;;;5038769;28;20050;-72
2021/07/07 05:47:16;;;;;;;10.93;3.67;;;17.80;76.00;;;;;;5038150;28;20046;-73
2021/07/07 05:49:42;;;;;;;9.30;3.67;;;17.80;76.10;;;;;;5038905;28;20041;-77
2021/07/07 05:52:09;;;;;;;10.60;3.80;;;18.00;76.00;;;;;;5035230;28;20080;-78
2021/07/07 05:54:35;;;;;;;12.38;3.72;;;18.00;75.70;;;;;;5041338;28;20037;-74
2021/07/07 05:57:00;;;;;;;12.70;4.00;;;18.10;75.60;;;;;;5029416;28;20049;-74
2021/07/07 05:59:26;;;;;;;10.85;3.78;;;18.00;75.80;;;;;;5042938;28;20064;-73
2021/07/07 06:01:52;;;;;;;9.60;3.78;;;18.00;75.80;;;;;;5035404;28;20042;-74
2021/07/07 06:04:18;;;;;;;9.30;3.70;;;18.00;75.80;;;;;;5047349;28;20117;-75
2021/07/07 06:06:43;;;;;;;10.50;4.10;;;18.10;75.80;;;;;;5041101;28;20113;-73
2021/07/07 06:09:09;;;;;;;14.40;4.20;;;18.20;75.70;;;;;;5038836;28;20034;-74
2021/07/07 06:11:35;;;;;;;12.07;4.38;;;18.50;74.90;;;;;;5028222;28;20050;-73
2021/07/07 06:14:02;;;;;;;10.18;4.70;;;18.50;74.60;;;;;;5036928;28;20449;-76
2021/07/07 06:16:27;;;;;;;13.70;4.55;;;18.60;74.00;;;;;;5030521;28;20033;-73
2021/07/07 06:18:53;;;;;;;10.15;4.30;;;18.60;73.90;;;;;;5041090;28;20030;-74
2021/07/07 06:21:19;;;;;;;10.05;4.50;;;18.60;74.10;;;;;;5048321;28;20057;-74
2021/07/07 06:23:44;;;;;;;16.50;4.70;;;18.60;73.80;;;;;;5036374;28;20038;-73
2021/07/07 06:26:11;;;;;;;11.27;3.90;;;18.60;74.00;;;;;;5028783;28;20050;-76
2021/07/07 06:28:37;;;;;;;12.48;4.47;;;18.60;73.70;;;;;;5029137;28;20038;-74
2021/07/07 06:31:03;;;;;;;10.82;4.55;;;18.90;73.60;;;;;;5036104;28;20049;-73
2021/07/07 06:33:28;;;;;;;9.73;4.57;;;19.20;72.40;;;;;;5037897;28;20030;-74
2021/07/07 06:35:54;;;;;;;9.63;4.43;;;19.50;72.00;;;;;;5029378;28;20461;-77
2021/07/07 06:38:20;;;;;;;11.35;3.78;;;19.90;71.00;;;;;;5028650;28;20046;-77
2021/07/07 06:40:46;;;;;;;9.00;3.97;;;20.10;69.80;;;;;;5044814;28;20037;-75
2021/07/07 06:43:13;;;;;;;10.40;3.42;;;20.40;69.00;;;;;;5028793;28;20042;-74
2021/07/07 06:45:39;;;;;;;12.10;3.65;;;20.30;68.30;;;;;;5033600;28;20038;-74
2021/07/07 06:48:07;;;;;;;13.02;4.13;;;20.30;67.50;;;;;;5028908;28;20101;-74
2021/07/07 06:50:34;;;;;;;9.95;4.10;;;20.50;67.40;;;;;;5039038;28;20064;-74
2021/07/07 06:53:01;;;;;;;8.90;3.53;;;20.60;67.10;;;;;;5033940;28;20072;-73
2021/07/07 06:55:26;;;;;;;11.00;3.35;;;20.60;67.40;;;;;;5050389;28;20029;-75
2021/07/07 06:57:53;;;;;;;10.73;4.28;;;20.60;67.30;;;;;;5038593;28;20097;-74
2021/07/07 07:00:20;;;;;;;9.50;3.75;;;20.50;67.20;;;;;;5048351;28;20045;-75
2021/07/07 07:02:46;;;;;;;11.82;4.45;;;20.60;66.60;;;;;;5036679;28;20061;-76
2021/07/07 07:05:13;;;;;;;9.90;4.30;;;20.70;66.40;;;;;;5027982;28;20049;-76
2021/07/07 07:07:40;;;;;;;12.48;4.05;;;20.90;66.20;;;;;;5027052;28;20034;-76
2021/07/07 07:10:07;;;;;;;10.20;4.35;;;21.10;66.40;;;;;;5028067;28;20044;-73
2021/07/07 07:12:35;;;;;;;10.45;3.40;;;21.00;65.20;;;;;;5028139;28;20477;-74
2021/07/07 07:15:02;;;;;;;11.43;4.20;;;20.70;65.70;;;;;;5029494;28;20037;-76
2021/07/07 07:17:28;;;;;;;10.98;4.20;;;20.50;66.20;;;;;;5031749;28;20030;-74
2021/07/07 07:19:54;;;;;;;11.95;4.43;;;20.30;66.30;;;;;;5030169;28;20080;-74
2021/07/07 07:22:20;;;;;;;10.23;4.18;;;20.10;67.00;;;;;;5032475;28;20040;-73
2021/07/07 07:24:46;;;;;;;21.73;4.78;;;19.90;66.80;;;;;;5040657;28;20030;-73
2021/07/07 07:27:12;;;;;;;10.18;4.07;;;19.80;67.90;;;;;;5027464;28;20038;-74
2021/07/07 07:29:40;;;;;;;11.00;4.13;;;19.90;67.90;;;;;;5032183;28;20029;-73
2021/07/07 07:32:07;;;;;;;11.35;4.32;;;19.60;68.20;;;;;;5033355;28;20038;-73
2021/07/07 07:34:33;;;;;;;9.88;4.22;;;19.50;68.40;;;;;;5028267;28;20057;-73
2021/07/07 07:37:04;;;;;;;8.27;4.28;;;19.40;69.10;;;;;;5034361;28;20057;-74
2021/07/07 07:39:40;;;;;;;13.02;4.80;;;19.40;69.50;;;;;;5029243;28;20045;-74
2021/07/07 07:42:06;;;;;;;8.40;3.92;;;19.40;69.70;;;;;;5025797;28;20044;-72
2021/07/07 07:44:32;;;;;;;9.88;4.28;;;19.30;69.90;;;;;;5028259;28;20060;-75
2021/07/07 07:46:58;;;;;;;12.02;4.68;;;19.30;69.80;;;;;;5038191;28;20507;-74
2021/07/07 07:49:25;;;;;;;9.68;4.25;;;19.40;69.60;;;;;;5041870;28;20045;-74
2021/07/07 07:51:51;;;;;;;9.02;3.97;;;19.40;70.20;;;;;;5027229;28;20518;-74
2021/07/07 07:54:17;;;;;;;10.07;4.80;;;19.40;69.80;;;;;;5046027;28;20034;-74
2021/07/07 07:56:43;;;;;;;9.57;4.53;;;19.50;69.30;;;;;;5037144;28;20049;-75
2021/07/07 07:59:08;;;;;;;8.30;3.85;;;19.50;69.00;;;;;;5037401;28;20046;-74
2021/07/07 08:01:37;;;;;;;9.43;4.30;;;19.60;68.00;;;;;;5034237;28;20064;-76
2021/07/07 08:04:03;;;;;;;7.28;4.30;;;19.70;67.60;;;;;;5026963;28;20042;-75
2021/07/07 08:06:29;;;;;;;7.97;3.75;;;19.80;67.60;;;;;;5027643;28;20037;-76
2021/07/07 08:08:54;;;;;;;7.38;3.92;;;20.00;66.30;;;;;;5029512;28;20038;-73
2021/07/07 08:11:21;;;;;;;7.10;4.15;;;20.10;65.90;;;;;;5026823;28;20042;-73
2021/07/07 08:13:47;;;;;;;13.05;4.72;;;20.10;66.00;;;;;;5027223;28;20053;-76
2021/07/07 08:16:13;;;;;;;10.20;4.18;;;20.20;66.00;;;;;;5032895;28;20030;-74
2021/07/07 08:18:40;;;;;;;8.60;4.10;;;20.10;65.70;;;;;;5032173;28;20187;-74
2021/07/07 08:21:05;;;;;;;12.00;3.95;;;20.20;66.70;;;;;;5029903;28;20099;-76
2021/07/07 08:23:31;;;;;;;8.65;4.10;;;20.30;65.40;;;;;;5028925;28;20031;-74
2021/07/07 08:25:57;;;;;;;7.22;3.65;;;20.20;65.10;;;;;;5027125;28;20046;-73
2021/07/07 08:28:23;;;;;;;11.88;4.22;;;20.10;66.40;;;;;;5027477;28;20038;-73
2021/07/07 08:30:48;;;;;;;13.23;4.57;;;20.10;65.90;;;;;;5039332;28;20042;-74
2021/07/07 08:33:15;;;;;;;11.65;4.68;;;20.00;66.30;;;;;;5032186;28;20046;-73
2021/07/07 08:35:41;;;;;;;8.20;3.95;;;20.10;66.60;;;;;;5032476;28;20097;-73
2021/07/07 08:38:07;;;;;;;12.48;4.57;;;20.20;67.20;;;;;;5040408;28;20029;-74
2021/07/07 08:40:33;;;;;;;12.10;4.22;;;20.70;66.80;;;;;;5026201;28;20033;-76
2021/07/07 08:42:59;;;;;;;9.25;4.47;;;21.10;65.90;;;;;;5025643;28;20037;-74
2021/07/07 08:45:25;;;;;;;10.15;4.45;;;21.00;66.00;;;;;;5035626;28;20089;-74
2021/07/07 08:47:51;;;;;;;12.20;4.43;;;20.90;65.80;;;;;;5031611;28;20034;-74
2021/07/07 08:50:26;;;;;;;8.45;4.50;;;20.70;67.40;;;;;;5037881;28;20361;-74
2021/07/07 08:52:54;;;;;;;12.20;4.95;;;20.60;69.70;;;;;;5031789;28;20045;-74
2021/07/07 08:55:21;;;;;;;11.75;4.90;;;20.30;70.80;;;;;;5026884;28;20044;-74
2021/07/07 08:57:48;;;;;;;11.80;5.43;;;20.20;71.70;;;;;;5033183;28;20044;-74
2021/07/07 09:00:28;;;;;;;9.98;5.13;;;20.00;72.80;;;;;;5038468;28;20034;-74
2021/07/07 09:02:57;;;;;;;11.43;6.10;;;19.80;74.20;;;;;;5029288;28;20100;-75
2021/07/07 09:05:24;;;;;;;15.90;6.00;;;19.70;74.90;;;;;;5036227;28;20033;-73
2021/07/07 09:07:50;;;;;;;10.23;5.60;;;19.90;76.00;;;;;;5039388;28;20030;-73
2021/07/07 09:10:25;;;;;;;12.05;5.63;;;20.30;75.60;;;;;;5027853;28;20048;-75
2021/07/07 09:12:51;;;;;;;10.15;5.30;;;20.80;75.50;;;;;;5039736;28;20046;-73
2021/07/07 09:15:17;;;;;;;10.02;5.88;;;21.20;72.40;;;;;;5025664;28;20041;-74
2021/07/07 09:17:48;;;;;;;9.27;4.55;;;21.50;71.10;;;;;;5035135;28;20057;-73
2021/07/07 09:20:23;;;;;;;9.35;5.20;;;21.60;69.60;;;;;;5028251;28;20061;-75
2021/07/07 09:22:49;;;;;;;;;;;21.80;71.40;;;;;;5027372;28;20088;-74
2021/07/07 09:25:18;;;;;;;8.95;3.90;;;22.20;67.50;;;;;;5030599;28;20357;-76
2021/07/07 09:27:45;;;;;;;11.10;4.80;;;22.40;66.70;;;;;;5031362;28;20098;-73
2021/07/07 09:30:13;;;;;;;9.77;4.20;;;22.10;66.70;;;;;;5032430;28;20033;-74
2021/07/07 09:32:47;;;;;;;8.48;3.75;;;22.00;65.40;;;;;;5026703;28;20046;-74
2021/07/07 09:35:13;;;;;;;;;;;22.10;64.40;;;;;;5026591;28;20034;-74
2021/07/07 09:37:46;;;;;;;7.40;3.55;;;22.40;64.60;;;;;;5040100;28;20016;-74
2021/07/07 09:40:14;;;;;;;7.50;3.53;;;22.70;63.10;;;;;;5034255;28;20043;-75
2021/07/07 09:42:41;;;;;;;9.30;3.72;;;22.90;62.10;;;;;;5042341;28;20420;-74
2021/07/07 09:45:12;;;;;;;6.45;3.33;;;23.40;60.90;;;;;;5039053;28;20034;-74
2021/07/07 09:47:41;;;;;;;8.50;3.60;;;23.50;59.70;;;;;;5026548;28;20092;-74
2021/07/07 09:50:08;;;;;;;7.93;3.30;;;23.80;57.60;;;;;;5035422;28;20040;-76
2021/07/07 09:52:34;;;;;;;10.38;3.65;;;24.00;58.20;;;;;;5026370;28;20060;-75
2021/07/07 09:55:03;;;;;;;10.23;3.60;;;24.00;58.50;;;;;;5040959;28;20037;-73
2021/07/07 09:57:29;;;;;;;7.82;3.50;;;24.10;57.00;;;;;;5035172;28;20030;-74
2021/07/07 09:59:54;;;;;;;8.00;3.42;;;24.40;56.10;;;;;;5035811;28;20032;-77
2021/07/07 10:02:20;;;;;;;8.85;3.75;;;24.10;56.50;;;;;;5037329;28;20641;-77
2021/07/07 10:04:46;;;;;;;8.65;3.60;;;23.80;56.80;;;;;;5029210;28;20042;-74
2021/07/07 10:07:13;;;;;;;8.25;3.70;;;23.60;57.90;;;;;;5029261;28;20049;-76
2021/07/07 10:09:40;;;;;;;9.77;3.90;;;23.40;57.80;;;;;;5044327;28;20160;-74
2021/07/07 10:12:07;;;;;;;8.07;3.50;;;22.90;59.00;;;;;;5029397;28;20033;-74
2021/07/07 10:14:33;;;;;;;10.82;4.40;;;22.60;60.30;;;;;;5051301;28;20030;-74
2021/07/07 10:16:59;;;;;;;6.85;3.30;;;22.50;60.40;;;;;;5031174;28;20026;-74
2021/07/07 10:19:26;;;;;;;8.05;3.53;;;22.30;61.40;;;;;;5045195;28;20069;-75
2021/07/07 10:21:52;;;;;;;9.50;3.80;;;22.20;61.10;;;;;;5031394;28;20527;-75
2021/07/07 10:24:22;;;;;;;7.60;3.70;;;22.10;60.50;;;;;;5046408;28;20482;-74
2021/07/07 10:26:50;;;;;;;6.68;3.47;;;22.10;61.10;;;;;;5030790;28;20033;-75
2021/07/07 10:29:17;;;;;;;9.05;3.42;;;22.00;60.90;;;;;;5029758;28;20057;-74
2021/07/07 10:31:56;;;;;;;7.72;3.45;;;22.00;60.20;;;;;;5035019;28;20044;-74
2021/07/07 10:34:24;;;;;;;8.98;3.22;;;22.20;60.50;;;;;;5031428;28;20065;-73
2021/07/07 10:36:52;;;;;;;6.72;3.20;;;22.70;59.60;;;;;;5028264;28;20041;-74
2021/07/07 10:39:18;;;;;;;7.20;3.13;;;23.10;57.80;;;;;;5028664;28;20042;-74
2021/07/07 10:41:45;;;;;;;9.13;3.22;;;23.60;57.30;;;;;;5029546;28;20481;-73
2021/07/07 10:44:23;;;;;;;6.93;3.05;;;24.10;56.40;;;;;;5030932;28;20052;-74
2021/07/07 10:47:07;;;;;;;6.47;3.22;;;24.40;56.10;;;;;;5038629;28;20048;-73
2021/07/07 10:49:47;;;;;;;8.75;3.00;;;24.50;52.50;;;;;;5037116;28;20568;-74
2021/07/07 10:52:16;;;;;;;7.78;3.47;;;24.30;52.70;;;;;;5028532;28;20041;-75
2021/07/07 10:54:55;;;;;;;8.75;2.90;;;24.10;52.50;;;;;;5034119;28;20048;-73
2021/07/07 10:57:23;;;;;;;6.88;3.53;;;24.20;52.00;;;;;;5026837;28;20048;-75
2021/07/07 10:59:53;;;;;;;6.22;2.63;;;24.40;52.40;;;;;;5040329;28;20041;-75
2021/07/07 11:02:23;;;;;;;9.73;3.88;;;24.50;51.80;;;;;;5034881;28;20034;-74
2021/07/07 11:04:54;;;;;;;7.97;3.30;;;24.60;52.50;;;;;;5034984;28;20034;-75
2021/07/07 11:07:36;;;;;;;7.13;3.00;;;24.40;51.90;;;;;;5045249;28;20053;-74
2021/07/07 11:10:04;;;;;;;5.75;3.00;;;24.50;51.50;;;;;;5030888;28;20042;-74
2021/07/07 11:12:37;;;;;;;5.75;2.85;;;24.70;51.00;;;;;;5035216;28;20053;-76
2021/07/07 11:15:11;;;;;;;6.78;3.50;;;24.80;51.00;;;;;;5027812;28;20037;-74
2021/07/07 11:17:39;;;;;;;7.82;3.22;;;24.80;51.00;;;;;;5038869;28;20473;-73
2021/07/07 11:20:20;;;;;;;6.70;2.80;;;25.00;52.00;;;;;;5043445;28;20091;-74
2021/07/07 11:22:57;;;;;;;5.82;2.88;;;24.80;49.70;;;;;;5027588;28;20125;-74
2021/07/07 11:25:25;;;;;;;7.10;3.10;;;24.80;50.80;;;;;;5027647;28;20037;-74
2021/07/07 11:27:52;;;;;;;7.20;3.30;;;24.80;50.80;;;;;;5026655;28;20056;-75
2021/07/07 11:30:18;;;;;;;6.35;2.95;;;24.30;51.50;;;;;;5031687;28;20042;-74
2021/07/07 11:32:46;;;;;;;5.88;3.05;;;24.10;52.40;;;;;;5027025;28;20378;-75
2021/07/07 11:35:14;;;;;;;6.53;3.05;;;24.00;52.90;;;;;;5026374;28;20049;-74
2021/07/07 11:37:41;;;;;;;5.63;2.90;;;23.60;52.40;;;;;;5027807;28;20038;-74
2021/07/07 11:40:17;;;;;;;7.43;2.70;;;23.40;51.70;;;;;;5037156;28;20061;-73
2021/07/07 11:43:13;;;;;;;6.13;2.50;;;23.30;52.30;;;;;;5039579;28;20053;-72
2021/07/07 11:45:52;;;;;;;6.28;2.75;;;23.50;53.40;;;;;;5039474;28;20030;-76
2021/07/07 11:48:27;;;;;;;6.45;2.42;;;24.10;51.00;;;;;;5030772;28;20029;-75
2021/07/07 11:50:58;;;;;;;5.53;2.60;;;24.10;50.80;;;;;;5029973;28;20049;-72
2021/07/07 11:53:32;;;;;;;7.20;2.63;;;24.70;50.70;;;;;;5025940;28;20034;-73
2021/07/07 11:56:05;;;;;;;6.72;2.28;;;25.10;48.90;;;;;;5027901;28;20062;-72
2021/07/07 11:58:35;;;;;;;7.05;2.47;;;25.40;47.90;;;;;;5054623;28;20034;-72
2021/07/07 12:01:23;;;;;;;6.00;2.60;;;25.70;47.40;;;;;;5036758;28;20064;-73
2021/07/07 12:04:06;;;;;;;5.70;2.35;;;25.50;47.00;;;;;;5031771;28;20069;-72
2021/07/07 12:06:39;;;;;;;6.03;2.33;;;25.30;46.20;;;;;;5026071;28;20109;-76
2021/07/07 12:09:23;;;;;;;4.30;2.35;;;25.20;45.90;;;;;;5034301;28;20037;-73
2021/07/07 12:12:00;;;;;;;5.32;2.63;;;25.10;46.40;;;;;;5035635;28;20061;-72
2021/07/07 12:14:32;;;;;;;7.95;2.58;;;25.20;47.70;;;;;;5033094;28;20057;-73
2021/07/07 12:16:59;;;;;;;6.50;2.65;;;25.80;45.70;;;;;;5028405;28;20030;-72
2021/07/07 12:19:26;;;;;;;5.15;2.25;;;26.00;45.20;;;;;;5036565;28;20030;-72
2021/07/07 12:22:03;;;;;;;5.72;2.40;;;25.80;45.60;;;;;;5025153;28;20046;-72
2021/07/07 12:24:31;;;;;;;7.18;2.40;;;25.60;45.50;;;;;;5035234;28;20041;-73
2021/07/07 12:27:02;;;;;;;6.13;2.40;;;25.50;46.40;;;;;;5027572;28;20044;-73
2021/07/07 12:29:36;;;;;;;6.65;2.33;;;25.50;46.90;;;;;;5028596;28;20034;-73
2021/07/07 12:32:07;;;;;;;4.78;2.30;;;25.30;46.10;;;;;;5030444;28;20054;-73
2021/07/07 12:34:39;;;;;;;6.45;2.58;;;24.90;46.40;;;;;;5028593;28;20354;-75
2021/07/07 12:37:13;;;;;;;5.18;2.70;;;24.60;47.70;;;;;;5025402;28;20037;-73
2021/07/07 12:39:58;;;;;;;;;;;24.60;47.70;;;;;;5042333;28;20117;-74
2021/07/07 12:42:33;;;;;;;7.85;2.50;;;24.80;47.50;;;;;;5036070;28;19919;-73
2021/07/07 12:45:15;;;;;;;5.72;2.58;;;25.10;48.00;;;;;;5033682;28;20033;-72
2021/07/07 12:47:42;;;;;;;5.85;2.63;;;25.40;46.20;;;;;;5026753;28;20038;-72